Terminal Aerodrome Forecast
Issued by NWS

Home | Current Version | Previous Version | Text Only | Print | Product List | Glossary On
Versions: 1 2 3 4 5 6 7 8 9 10 11 12 13 14 15 16 17 18 19 20 21 22
000
FTUS44 KHGX 231730
TAFCXO
TAF
KCXO 231730Z 2318/2418 18011KT P6SM BKN035 BKN250
     FM240000 15005KT P6SM BKN250
     FM240700 19004KT P6SM BKN015
     FM241600 10003KT P6SM VCSH BKN015=

USA.gov is the U.S. government's official web portal to all federal, state and local government web resources and services.